createdAt,value
2023-05-10T00:00:38.905Z,5.23
2023-05-10T00:01:38.926Z,3.22
2023-05-10T00:02:39.081Z,1.74
2023-05-10T00:03:39.024Z,0.70
2023-05-10T00:04:38.908Z,0.71
2023-05-10T00:05:38.911Z,0.59
2023-05-10T00:06:38.885Z,0.56
2023-05-10T00:07:38.900Z,0.62
2023-05-10T00:08:38.966Z,0.76
2023-05-10T00:09:38.869Z,0.61
2023-05-10T00:10:38.960Z,0.63
2023-05-10T00:11:38.904Z,0.92
2023-05-10T00:12:38.935Z,0.57
2023-05-10T00:13:38.938Z,0.77
2023-05-10T00:14:38.918Z,0.54
2023-05-10T00:15:38.912Z,0.32
2023-05-10T00:16:39.006Z,0.69
2023-05-10T00:17:38.990Z,0.86
2023-05-10T00:18:38.918Z,0.68
2023-05-10T00:19:38.888Z,0.57
2023-05-10T00:21:38.925Z,0.56
2023-05-10T00:22:38.931Z,0.59
2023-05-10T00:23:38.928Z,0.59
2023-05-10T00:24:38.938Z,0.79
2023-05-10T00:25:38.962Z,0.55
2023-05-10T00:26:38.936Z,0.71
2023-05-10T00:27:38.959Z,0.65
2023-05-10T00:28:38.916Z,0.65
2023-05-10T00:30:38.918Z,0.69
2023-05-10T00:31:38.954Z,0.94
2023-05-10T00:32:39.016Z,0.44
2023-05-10T00:33:38.982Z,0.57
2023-05-10T00:34:38.984Z,0.60
2023-05-10T00:35:38.985Z,0.57
2023-05-10T00:36:39.014Z,0.37
2023-05-10T00:37:39.042Z,0.43
2023-05-10T00:38:38.970Z,0.65
2023-05-10T00:39:38.999Z,0.70
2023-05-10T00:40:38.950Z,0.45
2023-05-10T00:41:38.949Z,0.48
2023-05-10T00:42:39.038Z,0.51
2023-05-10T00:43:39.013Z,0.58
2023-05-10T00:44:38.981Z,0.68
2023-05-10T00:45:38.971Z,0.57
2023-05-10T00:46:38.959Z,0.50
2023-05-10T00:48:39.030Z,0.62
2023-05-10T00:49:39.023Z,0.47
2023-05-10T00:50:38.979Z,0.74
2023-05-10T00:51:39.012Z,0.57
2023-05-10T00:52:39.027Z,0.57
2023-05-10T00:53:38.998Z,0.43
2023-05-10T00:54:39.017Z,0.53
2023-05-10T00:55:39.025Z,0.51
2023-05-10T00:56:39.018Z,0.73
2023-05-10T00:57:43.626Z,0.87
2023-05-10T00:58:39.012Z,0.62
2023-05-10T01:00:39.076Z,0.78
2023-05-10T01:01:39.084Z,0.40
2023-05-10T01:02:39.180Z,0.67
2023-05-10T01:03:39.108Z,0.52
2023-05-10T01:04:39.097Z,0.58
2023-05-10T01:05:39.062Z,0.58
2023-05-10T01:06:39.006Z,0.55
2023-05-10T01:08:39.132Z,0.57
2023-05-10T01:09:39.061Z,0.49
2023-05-10T01:10:39.067Z,0.55
2023-05-10T01:11:39.062Z,0.70
2023-05-10T01:12:39.189Z,0.55
2023-05-10T01:13:39.104Z,0.64
2023-05-10T01:14:39.035Z,0.38
2023-05-10T01:16:39.090Z,0.38
2023-05-10T01:17:39.101Z,0.90
2023-05-10T01:19:39.068Z,0.71
2023-05-10T01:20:39.143Z,0.53
2023-05-10T01:21:39.086Z,1.16
2023-05-10T01:22:39.109Z,4.09
2023-05-10T01:25:39.118Z,11.73
2023-05-10T01:27:39.096Z,20.63
2023-05-10T01:28:39.145Z,18.78
2023-05-10T01:29:39.114Z,9.79
2023-05-10T01:30:39.159Z,4.71
2023-05-10T01:31:39.173Z,1.96
2023-05-10T01:32:39.122Z,1.39
2023-05-10T01:33:39.121Z,1.02
2023-05-10T01:36:39.143Z,0.98
2023-05-10T01:37:39.105Z,0.89
2023-05-10T01:39:39.158Z,0.73
2023-05-10T01:40:39.104Z,1.15
2023-05-10T01:41:39.152Z,0.79
2023-05-10T01:42:39.104Z,0.67
2023-05-10T01:43:39.188Z,0.96
2023-05-10T01:44:39.201Z,0.86
2023-05-10T01:46:39.187Z,1.03
2023-05-10T01:47:39.185Z,0.70
2023-05-10T01:48:39.189Z,0.76
2023-05-10T01:49:39.182Z,0.45
2023-05-10T01:50:39.144Z,0.73
2023-05-10T01:51:39.182Z,0.85
2023-05-10T01:52:39.321Z,0.48
2023-05-10T01:53:39.193Z,0.56
2023-05-10T01:54:39.191Z,0.82
2023-05-10T01:55:39.145Z,0.93
2023-05-10T01:57:42.220Z,0.76
2023-05-10T01:58:39.222Z,0.76
2023-05-10T01:59:39.201Z,0.96
2023-05-10T02:01:39.201Z,0.74
2023-05-10T02:03:39.297Z,1.07
2023-05-10T02:04:39.193Z,0.70
2023-05-10T02:06:39.222Z,0.83
2023-05-10T02:07:39.194Z,0.97
2023-05-10T02:08:39.161Z,0.66
2023-05-10T02:10:39.212Z,1.03
2023-05-10T02:11:44.210Z,0.66
2023-05-10T02:13:39.206Z,0.70
2023-05-10T02:14:39.235Z,0.79
2023-05-10T02:15:39.251Z,0.69
2023-05-10T02:16:39.231Z,0.86
2023-05-10T02:18:39.262Z,1.05
2023-05-10T02:19:39.273Z,0.95
2023-05-10T02:20:39.260Z,0.87
2023-05-10T02:21:39.216Z,0.84
2023-05-10T02:22:39.263Z,1.46
2023-05-10T02:24:39.277Z,0.79
2023-05-10T02:25:39.260Z,0.95
2023-05-10T02:26:39.237Z,0.94
2023-05-10T02:27:39.292Z,0.81
2023-05-10T02:28:39.254Z,0.93
2023-05-10T02:29:39.213Z,1.03
2023-05-10T02:30:39.268Z,0.91
2023-05-10T02:31:39.307Z,0.94
2023-05-10T02:32:39.303Z,0.90
2023-05-10T02:33:39.264Z,0.76
2023-05-10T02:34:39.230Z,0.77
2023-05-10T02:35:39.297Z,1.03
2023-05-10T02:36:39.254Z,0.97
2023-05-10T02:37:39.272Z,1.02
2023-05-10T02:38:39.282Z,0.78
2023-05-10T02:39:39.244Z,0.93
2023-05-10T02:40:39.332Z,0.83
2023-05-10T02:41:39.308Z,1.02
2023-05-10T02:42:39.296Z,0.74
2023-05-10T02:43:39.294Z,0.68
2023-05-10T02:44:39.251Z,0.91
2023-05-10T02:45:39.356Z,0.81
2023-05-10T02:46:39.321Z,0.84
2023-05-10T02:47:39.290Z,0.98
2023-05-10T02:48:44.361Z,0.86
2023-05-10T02:49:39.332Z,0.68
2023-05-10T02:50:39.335Z,0.93
2023-05-10T02:51:39.320Z,0.99
2023-05-10T02:52:39.392Z,0.88
2023-05-10T02:53:39.332Z,0.98
2023-05-10T02:54:39.323Z,0.75
2023-05-10T02:55:39.331Z,0.65
2023-05-10T02:56:39.322Z,0.74
2023-05-10T02:57:39.298Z,0.93
2023-05-10T02:58:39.348Z,0.70
2023-05-10T02:59:39.289Z,0.66
2023-05-10T03:00:39.349Z,1.09
2023-05-10T03:01:39.355Z,0.73
2023-05-10T03:02:39.335Z,0.86
2023-05-10T03:03:39.346Z,0.97
2023-05-10T03:04:39.427Z,0.78
2023-05-10T03:05:39.345Z,0.95
2023-05-10T03:06:39.375Z,0.80
2023-05-10T03:07:39.357Z,0.90
2023-05-10T03:08:39.385Z,0.92
2023-05-10T03:09:39.379Z,0.90
2023-05-10T03:10:39.332Z,0.80
2023-05-10T03:11:39.391Z,1.22
2023-05-10T03:12:39.391Z,0.87
2023-05-10T03:13:39.363Z,0.92
2023-05-10T03:14:39.375Z,0.84
2023-05-10T03:15:39.365Z,0.82
2023-05-10T03:16:39.381Z,0.79
2023-05-10T03:17:39.427Z,1.03
2023-05-10T03:18:39.350Z,0.74
2023-05-10T03:20:39.407Z,0.90
2023-05-10T03:21:39.362Z,0.93
2023-05-10T03:22:39.568Z,0.89
2023-05-10T03:23:39.364Z,1.00
2023-05-10T03:24:39.457Z,0.91
2023-05-10T03:25:39.389Z,0.84
2023-05-10T03:26:39.396Z,1.05
2023-05-10T03:27:39.432Z,1.29
2023-05-10T03:28:39.456Z,1.23
2023-05-10T03:30:39.435Z,1.38
2023-05-10T03:31:39.412Z,1.35
2023-05-10T03:32:39.482Z,1.30
2023-05-10T03:33:39.413Z,1.08
2023-05-10T03:34:39.417Z,1.38
2023-05-10T03:35:39.433Z,1.12
2023-05-10T03:36:39.410Z,1.37
2023-05-10T03:37:39.450Z,1.12
2023-05-10T03:38:39.436Z,1.52
2023-05-10T03:39:39.426Z,1.20
2023-05-10T03:40:39.434Z,1.27
2023-05-10T03:41:39.464Z,1.00
2023-05-10T03:42:39.464Z,1.59
2023-05-10T03:43:39.479Z,1.33
2023-05-10T03:44:39.461Z,1.17
2023-05-10T03:45:39.506Z,1.25
2023-05-10T03:46:39.485Z,0.98
2023-05-10T03:47:39.495Z,1.14
2023-05-10T03:49:39.455Z,1.16
2023-05-10T03:50:39.507Z,1.41
2023-05-10T03:51:39.509Z,1.40
2023-05-10T03:52:39.463Z,1.11
2023-05-10T03:53:39.492Z,1.39
2023-05-10T03:54:39.506Z,1.58
2023-05-10T03:55:39.513Z,1.65
2023-05-10T03:56:39.506Z,1.34
2023-05-10T03:57:39.460Z,1.56
2023-05-10T03:58:39.485Z,1.33
2023-05-10T03:59:39.791Z,1.69
2023-05-10T04:00:39.515Z,1.11
2023-05-10T04:01:39.532Z,1.61
2023-05-10T04:02:39.622Z,1.31
2023-05-10T04:03:39.584Z,1.45
2023-05-10T04:04:39.523Z,1.51
2023-05-10T04:05:39.489Z,1.85
2023-05-10T04:07:39.519Z,1.56
2023-05-10T04:08:39.521Z,1.71
2023-05-10T04:09:39.541Z,1.70
2023-05-10T04:10:39.492Z,1.49
2023-05-10T04:11:39.550Z,1.33
2023-05-10T04:12:39.550Z,1.68
2023-05-10T04:15:39.532Z,1.66
2023-05-10T04:17:39.574Z,1.54
2023-05-10T04:18:39.516Z,1.79
2023-05-10T04:20:39.557Z,1.38
2023-05-10T04:21:39.553Z,1.88
2023-05-10T04:22:39.588Z,1.87
2023-05-10T04:23:39.518Z,1.55
2023-05-10T04:24:39.538Z,1.63
2023-05-10T04:25:39.575Z,1.78
2023-05-10T04:27:39.560Z,1.53
2023-05-10T04:28:39.602Z,1.68
2023-05-10T04:29:39.574Z,1.90
2023-05-10T04:30:39.610Z,1.66
2023-05-10T04:31:39.564Z,1.67
2023-05-10T04:32:39.580Z,1.57
2023-05-10T04:33:39.601Z,1.52
2023-05-10T04:34:39.578Z,1.78
2023-05-10T04:36:39.961Z,1.66
2023-05-10T04:37:39.609Z,1.58
2023-05-10T04:38:39.589Z,1.48
2023-05-10T04:39:42.014Z,1.40
2023-05-10T04:40:39.610Z,1.42
2023-05-10T04:41:39.617Z,1.22
2023-05-10T04:42:39.572Z,1.37
2023-05-10T04:43:39.682Z,1.52
2023-05-10T04:44:39.564Z,1.24
2023-05-10T04:45:39.635Z,1.68
2023-05-10T04:46:39.631Z,1.39
2023-05-10T04:47:39.661Z,1.58
2023-05-10T04:48:39.609Z,1.36
2023-05-10T04:49:39.632Z,1.43
2023-05-10T04:50:39.640Z,1.38
2023-05-10T04:51:39.629Z,1.28
2023-05-10T04:52:39.591Z,1.23
2023-05-10T04:53:39.647Z,1.33
2023-05-10T04:54:39.690Z,1.43
2023-05-10T04:55:39.598Z,1.51
2023-05-10T04:56:39.660Z,1.30
2023-05-10T04:57:39.605Z,0.88
2023-05-10T04:59:39.665Z,1.06
2023-05-10T05:00:39.681Z,1.18
2023-05-10T05:03:39.760Z,1.15
2023-05-10T05:04:39.677Z,0.98
2023-05-10T05:05:39.615Z,1.36
2023-05-10T05:06:39.688Z,1.11
2023-05-10T05:07:39.643Z,1.31
2023-05-10T05:08:39.697Z,1.32
2023-05-10T05:09:39.650Z,1.35
2023-05-10T05:10:39.673Z,1.19
2023-05-10T05:11:39.668Z,1.21
2023-05-10T05:12:39.670Z,1.46
2023-05-10T05:13:40.194Z,1.50
2023-05-10T05:14:39.707Z,1.23
2023-05-10T05:15:39.709Z,1.34
2023-05-10T05:16:39.721Z,1.24
2023-05-10T05:17:39.693Z,1.63
2023-05-10T05:18:39.677Z,1.15
2023-05-10T05:19:39.691Z,1.09
2023-05-10T05:20:39.672Z,2.25
2023-05-10T05:21:39.725Z,3.16
2023-05-10T05:22:39.739Z,1.80
2023-05-10T05:23:39.706Z,1.85
2023-05-10T05:24:39.730Z,1.32
2023-05-10T05:25:39.775Z,1.22
2023-05-10T05:26:39.707Z,1.42
2023-05-10T05:27:39.715Z,1.23
2023-05-10T05:28:39.726Z,1.33
2023-05-10T05:29:39.716Z,1.26
2023-05-10T05:30:39.705Z,1.26
2023-05-10T05:31:39.770Z,1.58
2023-05-10T05:32:39.768Z,1.52
2023-05-10T05:34:39.739Z,1.56
2023-05-10T05:35:39.747Z,1.65
2023-05-10T05:36:39.729Z,1.47
2023-05-10T05:37:39.692Z,1.67
2023-05-10T05:38:39.740Z,1.80
2023-05-10T05:39:39.722Z,1.21
2023-05-10T05:40:39.709Z,1.80
2023-05-10T05:41:39.771Z,1.45
2023-05-10T05:43:39.750Z,1.54
2023-05-10T05:44:39.737Z,1.59
2023-05-10T05:45:39.798Z,1.36
2023-05-10T05:46:39.814Z,1.49
2023-05-10T05:47:39.852Z,1.40
2023-05-10T05:49:39.738Z,1.70
2023-05-10T05:50:40.429Z,1.69
2023-05-10T05:51:39.780Z,1.34
2023-05-10T05:52:39.764Z,1.41
2023-05-10T05:53:39.813Z,1.49
2023-05-10T05:54:39.781Z,1.15
2023-05-10T05:55:39.780Z,1.37
2023-05-10T05:56:39.818Z,1.58
2023-05-10T05:57:39.762Z,1.38
2023-05-10T05:58:39.797Z,0.74
2023-05-10T06:00:39.766Z,1.62
2023-05-10T06:01:39.803Z,1.56
2023-05-10T06:02:40.047Z,1.38
2023-05-10T06:03:39.936Z,1.24
2023-05-10T06:05:39.806Z,1.26
2023-05-10T06:07:39.820Z,1.45
2023-05-10T06:09:39.822Z,1.24
2023-05-10T06:10:39.783Z,1.24
2023-05-10T06:11:39.828Z,1.22
2023-05-10T06:12:39.810Z,1.15
2023-05-10T06:13:39.793Z,1.38
2023-05-10T06:14:39.822Z,1.20
2023-05-10T06:15:39.858Z,1.19
2023-05-10T06:17:39.919Z,1.46
2023-05-10T06:18:39.858Z,1.34
2023-05-10T06:19:39.859Z,1.15
2023-05-10T06:21:39.861Z,1.53
2023-05-10T06:22:39.897Z,1.50
2023-05-10T06:23:39.863Z,1.70
2023-05-10T06:24:39.880Z,1.26
2023-05-10T06:25:39.879Z,1.72
2023-05-10T06:26:39.873Z,1.36
2023-05-10T06:27:40.651Z,1.62
2023-05-10T06:28:39.872Z,1.80
2023-05-10T06:29:39.869Z,1.58
2023-05-10T06:30:39.883Z,1.63
2023-05-10T06:31:39.844Z,1.61
2023-05-10T06:32:39.943Z,1.49
2023-05-10T06:33:39.905Z,1.61
2023-05-10T06:34:39.860Z,1.16
2023-05-10T06:35:39.941Z,1.46
2023-05-10T06:36:39.932Z,1.74
2023-05-10T06:37:39.889Z,1.71
2023-05-10T06:38:39.874Z,1.44
2023-05-10T06:39:39.898Z,1.27
2023-05-10T06:40:39.881Z,1.32
2023-05-10T06:41:39.890Z,1.42
2023-05-10T06:43:39.920Z,1.36
2023-05-10T06:44:39.913Z,1.20
2023-05-10T06:45:39.902Z,2.34
2023-05-10T06:46:39.982Z,1.67
2023-05-10T06:47:39.971Z,1.13
2023-05-10T06:48:39.942Z,1.03
2023-05-10T06:49:39.945Z,0.65
2023-05-10T06:50:39.971Z,0.92
2023-05-10T06:51:39.927Z,0.98
2023-05-10T06:52:39.903Z,0.99
2023-05-10T06:53:39.949Z,1.06
2023-05-10T06:54:39.964Z,1.62
2023-05-10T06:55:39.926Z,0.93
2023-05-10T06:56:39.927Z,1.06
2023-05-10T06:57:39.897Z,1.02
2023-05-10T06:58:40.015Z,1.04
2023-05-10T06:59:39.952Z,0.84
2023-05-10T07:00:40.007Z,0.77
2023-05-10T07:02:40.011Z,1.10
2023-05-10T07:03:39.988Z,0.85
2023-05-10T07:04:40.902Z,0.97
2023-05-10T07:05:39.972Z,0.92
2023-05-10T07:06:39.993Z,0.76
2023-05-10T07:07:39.996Z,0.94
2023-05-10T07:08:39.945Z,0.89
2023-05-10T07:09:40.000Z,0.81
2023-05-10T07:12:40.053Z,0.71
2023-05-10T07:13:39.980Z,0.81
2023-05-10T07:14:39.974Z,0.69
2023-05-10T07:15:40.001Z,0.85
2023-05-10T07:16:40.061Z,0.84
2023-05-10T07:17:41.234Z,0.83
2023-05-10T07:18:40.119Z,0.83
2023-05-10T07:19:40.030Z,1.13
2023-05-10T07:21:39.987Z,0.72
2023-05-10T07:22:40.047Z,0.95
2023-05-10T07:23:40.039Z,0.75
2023-05-10T07:24:40.038Z,0.87
2023-05-10T07:25:40.035Z,0.81
2023-05-10T07:26:39.988Z,0.98
2023-05-10T07:27:40.024Z,0.87
2023-05-10T07:28:40.060Z,0.59
2023-05-10T07:29:40.022Z,1.10
2023-05-10T07:30:40.050Z,1.01
2023-05-10T07:31:40.036Z,1.00
2023-05-10T07:32:40.080Z,1.04
2023-05-10T07:33:40.053Z,0.92
2023-05-10T07:34:40.011Z,1.19
2023-05-10T07:35:40.074Z,0.83
2023-05-10T07:36:40.079Z,1.18
2023-05-10T07:37:40.061Z,1.11
2023-05-10T07:38:41.070Z,1.14
2023-05-10T07:39:40.019Z,1.14
2023-05-10T07:40:40.058Z,1.07
2023-05-10T07:41:41.073Z,1.25
2023-05-10T07:42:40.035Z,1.15
2023-05-10T07:44:40.032Z,1.25
2023-05-10T07:45:40.110Z,0.90
2023-05-10T07:46:40.084Z,1.43
2023-05-10T07:47:40.088Z,1.42
2023-05-10T07:48:40.087Z,2.93
2023-05-10T07:49:40.096Z,1.71
2023-05-10T07:51:40.089Z,1.45
2023-05-10T07:52:40.051Z,16.27
2023-05-10T07:53:40.088Z,41.44
2023-05-10T07:54:40.112Z,11.55
2023-05-10T07:55:40.106Z,5.20
2023-05-10T07:56:40.086Z,1.96
2023-05-10T07:57:40.068Z,1.90
2023-05-10T07:58:40.097Z,1.72
2023-05-10T07:59:40.104Z,1.37
2023-05-10T08:00:40.078Z,1.32
2023-05-10T08:02:40.224Z,1.22
2023-05-10T08:03:40.191Z,1.38
2023-05-10T08:04:40.147Z,1.53
2023-05-10T08:05:40.106Z,1.16
2023-05-10T08:06:40.144Z,1.16
2023-05-10T08:07:40.074Z,1.66
2023-05-10T08:09:40.137Z,1.27
2023-05-10T08:10:40.118Z,1.24
2023-05-10T08:11:40.144Z,1.35
2023-05-10T08:12:40.148Z,1.49
2023-05-10T08:13:40.102Z,1.36
2023-05-10T08:14:40.125Z,1.73
2023-05-10T08:15:40.170Z,2.63
2023-05-10T08:16:40.191Z,1.58
2023-05-10T08:17:40.173Z,1.46
2023-05-10T08:18:40.197Z,1.69
2023-05-10T08:19:40.183Z,1.45
2023-05-10T08:20:40.192Z,1.57
2023-05-10T08:22:40.154Z,1.29
2023-05-10T08:23:40.160Z,1.51
2023-05-10T08:24:40.181Z,1.55
2023-05-10T08:25:40.196Z,1.84
2023-05-10T08:26:40.211Z,1.40
2023-05-10T08:27:40.196Z,1.43
2023-05-10T08:28:40.166Z,1.62
2023-05-10T08:29:49.690Z,1.36
2023-05-10T08:30:40.177Z,1.85
2023-05-10T08:31:40.183Z,2.56
2023-05-10T08:32:40.238Z,2.43
2023-05-10T08:33:41.517Z,2.21
2023-05-10T08:34:40.200Z,1.99
2023-05-10T08:35:40.218Z,2.22
2023-05-10T08:36:40.189Z,1.94
2023-05-10T08:37:40.197Z,1.40
2023-05-10T08:38:40.250Z,1.78
2023-05-10T08:39:40.179Z,1.47
2023-05-10T08:40:40.235Z,1.55
2023-05-10T08:42:40.196Z,1.45
2023-05-10T08:43:40.209Z,1.46
2023-05-10T08:44:40.220Z,13.15
2023-05-10T08:45:40.238Z,8.25
2023-05-10T08:46:40.239Z,4.07
2023-05-10T08:47:40.230Z,1.96
2023-05-10T08:48:40.237Z,1.49
2023-05-10T08:49:40.227Z,1.13
2023-05-10T08:50:40.212Z,1.78
2023-05-10T08:51:41.778Z,1.61
2023-05-10T08:52:40.179Z,1.87
2023-05-10T08:53:40.206Z,2.02
2023-05-10T08:54:40.256Z,2.21
2023-05-10T08:55:40.250Z,2.00
2023-05-10T08:56:40.250Z,1.68
2023-05-10T08:57:40.237Z,1.59
2023-05-10T08:58:40.258Z,1.71
2023-05-10T08:59:40.280Z,1.54
2023-05-10T09:00:40.235Z,1.58
2023-05-10T09:01:40.274Z,1.85
2023-05-10T09:02:40.254Z,1.49
2023-05-10T09:03:40.260Z,1.61
2023-05-10T09:04:40.402Z,1.47
2023-05-10T09:05:40.229Z,1.57
2023-05-10T09:06:40.277Z,1.18
2023-05-10T09:07:40.280Z,1.50
2023-05-10T09:08:40.303Z,1.59
2023-05-10T09:10:40.213Z,1.64
2023-05-10T09:11:40.233Z,1.58
2023-05-10T09:13:40.263Z,1.31
2023-05-10T09:17:40.305Z,1.68
2023-05-10T09:18:40.286Z,1.06
2023-05-10T09:19:40.300Z,1.41
2023-05-10T09:20:40.338Z,1.82
2023-05-10T09:21:40.297Z,1.46
2023-05-10T09:22:40.299Z,1.85
2023-05-10T09:23:40.272Z,1.70
2023-05-10T09:24:40.316Z,1.77
2023-05-10T09:25:40.358Z,1.66
2023-05-10T09:26:40.274Z,1.65
2023-05-10T09:28:40.367Z,1.79
2023-05-10T09:29:40.278Z,1.41
2023-05-10T09:31:40.285Z,1.60
2023-05-10T09:32:40.323Z,1.86
2023-05-10T09:33:40.326Z,2.13
2023-05-10T09:34:40.337Z,1.61
2023-05-10T09:36:40.322Z,1.77
2023-05-10T09:37:40.339Z,1.46
2023-05-10T09:38:40.341Z,1.56
2023-05-10T09:39:40.299Z,1.42
2023-05-10T09:40:40.390Z,1.38
2023-05-10T09:41:40.369Z,1.39
2023-05-10T09:42:40.393Z,1.64
2023-05-10T09:43:40.379Z,1.95
2023-05-10T09:44:40.348Z,1.89
2023-05-10T09:45:40.392Z,1.62
2023-05-10T09:46:40.383Z,1.85
2023-05-10T09:47:40.426Z,1.88
2023-05-10T09:48:40.385Z,1.45
2023-05-10T09:49:40.366Z,1.36
2023-05-10T09:50:40.400Z,1.54
2023-05-10T09:51:40.383Z,1.60
2023-05-10T09:52:40.369Z,1.64
2023-05-10T09:53:40.390Z,1.71
2023-05-10T09:54:40.336Z,1.94
2023-05-10T09:55:40.359Z,1.51
2023-05-10T09:56:40.434Z,1.88
2023-05-10T09:57:40.372Z,1.76
2023-05-10T09:58:40.418Z,1.37
2023-05-10T10:01:40.471Z,1.46
2023-05-10T10:02:40.422Z,1.63
2023-05-10T10:03:40.405Z,1.65
2023-05-10T10:04:40.495Z,2.01
2023-05-10T10:05:40.389Z,2.28
2023-05-10T10:06:40.459Z,1.91
2023-05-10T10:07:40.371Z,1.47
2023-05-10T10:08:40.423Z,1.82
2023-05-10T10:09:40.443Z,2.24
2023-05-10T10:10:40.429Z,1.34
2023-05-10T10:11:40.466Z,1.52
2023-05-10T10:12:40.461Z,1.78
2023-05-10T10:13:40.474Z,1.88
2023-05-10T10:14:40.499Z,1.45
2023-05-10T10:15:40.464Z,1.60
2023-05-10T10:16:45.948Z,1.92
2023-05-10T10:17:40.491Z,1.73
2023-05-10T10:18:40.477Z,1.97
2023-05-10T10:19:40.446Z,1.84
2023-05-10T10:20:40.422Z,1.88
2023-05-10T10:21:40.453Z,2.03
2023-05-10T10:22:40.459Z,1.47
2023-05-10T10:23:40.414Z,1.07
2023-05-10T10:24:40.478Z,1.57
2023-05-10T10:25:40.472Z,1.42
2023-05-10T10:26:40.484Z,2.00
2023-05-10T10:27:40.511Z,1.03
2023-05-10T10:28:40.455Z,1.65
2023-05-10T10:29:40.466Z,1.86
2023-05-10T10:30:40.539Z,1.53
2023-05-10T10:31:40.579Z,1.78
2023-05-10T10:32:40.568Z,1.61
2023-05-10T10:33:40.494Z,1.56
2023-05-10T10:39:40.523Z,1.47
2023-05-10T10:40:40.521Z,1.90
2023-05-10T10:41:40.466Z,1.87
2023-05-10T10:42:40.520Z,1.46
2023-05-10T10:43:40.512Z,1.93
2023-05-10T10:44:40.564Z,1.76
2023-05-10T10:45:41.932Z,1.73
2023-05-10T10:46:40.544Z,1.69
2023-05-10T10:47:40.599Z,1.72
2023-05-10T10:48:40.527Z,1.50
2023-05-10T10:49:40.529Z,1.78
2023-05-10T10:50:40.551Z,1.24
2023-05-10T10:51:40.503Z,1.50
2023-05-10T10:52:40.550Z,1.67
2023-05-10T10:53:40.552Z,1.33
2023-05-10T10:54:40.498Z,1.39
2023-05-10T10:55:40.536Z,1.32
2023-05-10T10:56:40.581Z,1.08
2023-05-10T10:57:40.557Z,1.91
2023-05-10T10:58:40.556Z,1.59
2023-05-10T10:59:40.513Z,1.56
2023-05-10T11:00:40.603Z,1.24
2023-05-10T11:01:40.548Z,1.68
2023-05-10T11:02:40.611Z,1.47
2023-05-10T11:03:40.516Z,1.69
2023-05-10T11:04:40.578Z,1.78
2023-05-10T11:05:40.590Z,1.70
2023-05-10T11:06:40.572Z,1.37
2023-05-10T11:07:40.523Z,1.50
2023-05-10T11:08:40.617Z,1.58
2023-05-10T11:09:40.597Z,1.65
2023-05-10T11:10:40.592Z,1.57
2023-05-10T11:11:40.569Z,1.52
2023-05-10T11:12:40.554Z,1.97
2023-05-10T11:13:40.576Z,1.52
2023-05-10T11:14:40.622Z,1.64
2023-05-10T11:15:40.605Z,1.52
2023-05-10T11:16:40.635Z,1.69
2023-05-10T11:17:40.659Z,1.63
2023-05-10T11:18:40.628Z,1.82
2023-05-10T11:19:40.636Z,1.70
2023-05-10T11:20:40.588Z,1.68
2023-05-10T11:21:40.627Z,1.90
2023-05-10T11:22:40.597Z,1.91
2023-05-10T11:23:40.632Z,1.54
2023-05-10T11:24:40.605Z,1.99
2023-05-10T11:25:40.586Z,1.49
2023-05-10T11:26:40.571Z,1.96
2023-05-10T11:27:40.631Z,1.68
2023-05-10T11:28:40.624Z,1.59
2023-05-10T11:29:40.627Z,1.53
2023-05-10T11:30:40.639Z,1.55
2023-05-10T11:31:40.619Z,1.45
2023-05-10T11:32:40.658Z,1.70
2023-05-10T11:33:40.619Z,1.37
2023-05-10T11:34:40.619Z,1.80
2023-05-10T11:35:43.170Z,1.61
2023-05-10T11:37:40.673Z,1.91
2023-05-10T11:38:40.731Z,1.61
2023-05-10T11:39:40.674Z,1.50
2023-05-10T11:40:40.670Z,1.47
2023-05-10T11:41:42.313Z,1.31
2023-05-10T11:42:40.679Z,1.77
2023-05-10T11:43:40.618Z,1.51
2023-05-10T11:44:40.675Z,1.65
2023-05-10T11:45:40.692Z,1.19
2023-05-10T11:46:40.666Z,1.35
2023-05-10T11:47:42.724Z,1.48
2023-05-10T11:48:40.712Z,1.56
2023-05-10T11:49:40.678Z,1.28
2023-05-10T11:50:40.673Z,1.84
2023-05-10T11:51:40.631Z,1.51
2023-05-10T11:52:40.738Z,1.45
2023-05-10T11:53:40.702Z,1.36
2023-05-10T11:55:40.676Z,1.07
2023-05-10T11:56:40.646Z,1.27
2023-05-10T11:58:40.710Z,1.24
2023-05-10T11:59:43.031Z,1.33
2023-05-10T12:00:40.719Z,1.72
2023-05-10T12:01:40.738Z,1.27
2023-05-10T12:02:40.808Z,1.49
2023-05-10T12:03:40.936Z,2.09
2023-05-10T12:04:40.723Z,1.79
2023-05-10T12:05:42.901Z,1.09
2023-05-10T12:06:40.756Z,1.33
2023-05-10T12:07:40.744Z,1.33
2023-05-10T12:09:44.191Z,1.65
2023-05-10T12:10:40.744Z,1.57
2023-05-10T12:11:43.514Z,1.72
2023-05-10T12:12:40.736Z,1.72
2023-05-10T12:13:40.767Z,1.72
2023-05-10T12:15:40.775Z,1.84
2023-05-10T12:16:40.914Z,1.98
2023-05-10T12:17:41.965Z,1.74
2023-05-10T12:18:40.806Z,1.91
2023-05-10T12:19:40.763Z,1.80
2023-05-10T12:20:40.787Z,1.95
2023-05-10T12:21:40.762Z,1.81
2023-05-10T12:22:40.754Z,1.71
2023-05-10T12:23:40.819Z,1.94
2023-05-10T12:24:40.772Z,1.99
2023-05-10T12:25:40.760Z,1.73
2023-05-10T12:26:40.772Z,1.78
2023-05-10T12:28:40.805Z,1.40
2023-05-10T12:29:42.729Z,1.53
2023-05-10T12:30:40.761Z,1.44
2023-05-10T12:31:40.838Z,1.66
2023-05-10T12:32:40.823Z,2.49
2023-05-10T12:34:40.771Z,1.55
2023-05-10T12:35:42.985Z,1.65
2023-05-10T12:36:40.807Z,1.82
2023-05-10T12:37:40.802Z,2.06
2023-05-10T12:38:40.783Z,1.96
2023-05-10T12:39:40.806Z,2.21
2023-05-10T12:40:40.881Z,3.36
2023-05-10T12:42:40.849Z,3.50
2023-05-10T12:43:40.791Z,3.58
2023-05-10T12:44:41.012Z,2.83
2023-05-10T12:45:40.873Z,2.80
2023-05-10T12:46:40.822Z,2.81
2023-05-10T12:47:43.696Z,2.96
2023-05-10T12:48:40.812Z,2.54
2023-05-10T12:49:40.832Z,3.21
2023-05-10T12:50:40.843Z,2.19
2023-05-10T12:51:40.797Z,3.16
2023-05-10T12:52:40.859Z,2.79
2023-05-10T12:53:42.565Z,2.97
2023-05-10T12:54:40.882Z,1.75
2023-05-10T12:55:40.863Z,2.44
2023-05-10T12:57:40.869Z,2.36
2023-05-10T12:58:40.861Z,2.62
2023-05-10T12:59:40.878Z,2.58
2023-05-10T13:00:40.888Z,2.48
2023-05-10T13:01:40.985Z,2.49
2023-05-10T13:02:40.940Z,2.72
2023-05-10T13:03:40.880Z,2.37
2023-05-10T13:04:40.992Z,2.08
2023-05-10T13:05:40.899Z,2.13
2023-05-10T13:06:40.843Z,2.46
2023-05-10T13:07:40.904Z,2.41
2023-05-10T13:09:40.855Z,1.75
2023-05-10T13:10:40.890Z,1.83
2023-05-10T13:11:40.888Z,2.47
2023-05-10T13:12:40.930Z,2.31
2023-05-10T13:13:40.903Z,2.84
2023-05-10T13:14:40.886Z,2.78
2023-05-10T13:15:40.861Z,2.32
2023-05-10T13:16:40.948Z,2.37
2023-05-10T13:17:40.914Z,2.26
2023-05-10T13:18:40.957Z,2.05
2023-05-10T13:19:40.881Z,2.04
2023-05-10T13:20:40.920Z,2.36
2023-05-10T13:22:40.984Z,2.50
2023-05-10T13:23:40.884Z,2.15
2023-05-10T13:24:40.894Z,2.40
2023-05-10T13:25:40.932Z,1.88
2023-05-10T13:26:40.943Z,2.72
2023-05-10T13:27:40.910Z,3.52
2023-05-10T13:28:40.934Z,2.52
2023-05-10T13:29:42.116Z,2.44
2023-05-10T13:30:40.966Z,2.15
2023-05-10T13:31:41.048Z,1.97
2023-05-10T13:32:40.977Z,1.90
2023-05-10T13:33:40.957Z,2.42
2023-05-10T13:34:40.953Z,2.23
2023-05-10T13:35:40.937Z,2.40
2023-05-10T13:36:40.976Z,2.35
2023-05-10T13:37:40.960Z,2.55
2023-05-10T13:38:40.956Z,2.12
2023-05-10T13:39:40.994Z,2.43
2023-05-10T13:40:40.937Z,2.56
2023-05-10T13:41:40.966Z,2.57
2023-05-10T13:42:40.977Z,2.80
2023-05-10T13:43:41.005Z,2.33
2023-05-10T13:44:40.993Z,2.33
2023-05-10T13:45:40.973Z,2.30
2023-05-10T13:46:41.060Z,2.37
2023-05-10T13:47:41.026Z,2.23
2023-05-10T13:48:40.953Z,2.54
2023-05-10T13:49:41.019Z,2.57
2023-05-10T13:50:41.043Z,2.59
2023-05-10T13:51:41.006Z,2.29
2023-05-10T13:52:41.003Z,2.50
2023-05-10T13:53:41.034Z,2.67
2023-05-10T13:54:41.003Z,2.21
2023-05-10T13:56:41.024Z,1.78
2023-05-10T13:57:41.043Z,2.12
2023-05-10T13:58:40.989Z,2.24
2023-05-10T13:59:40.988Z,2.26
2023-05-10T14:00:41.040Z,2.47
2023-05-10T14:01:41.057Z,2.85
2023-05-10T14:02:41.093Z,2.34
2023-05-10T14:03:41.124Z,2.23
2023-05-10T14:04:41.067Z,2.14
2023-05-10T14:05:41.031Z,2.17
2023-05-10T14:06:41.016Z,2.28
2023-05-10T14:07:41.023Z,2.50
2023-05-10T14:08:41.048Z,2.29
2023-05-10T14:09:41.026Z,2.62
2023-05-10T14:10:41.011Z,2.51
2023-05-10T14:11:41.058Z,2.68
2023-05-10T14:12:41.068Z,2.67
2023-05-10T14:13:41.058Z,2.19
2023-05-10T14:14:41.012Z,2.63
2023-05-10T14:15:41.067Z,2.70
2023-05-10T14:16:41.126Z,2.53
2023-05-10T14:18:41.105Z,2.53
2023-05-10T14:19:41.035Z,2.22
2023-05-10T14:20:41.072Z,2.42
2023-05-10T14:21:41.049Z,3.24
2023-05-10T14:22:41.044Z,2.48
2023-05-10T14:23:41.095Z,2.30
2023-05-10T14:24:41.083Z,2.38
2023-05-10T14:25:41.086Z,2.00
2023-05-10T14:26:41.047Z,1.98
2023-05-10T14:27:41.078Z,2.16
2023-05-10T14:28:41.116Z,2.05
2023-05-10T14:29:41.107Z,1.94
2023-05-10T14:30:41.101Z,1.90
2023-05-10T14:31:41.159Z,2.25
2023-05-10T14:32:41.092Z,1.88
2023-05-10T14:33:41.100Z,1.96
2023-05-10T14:34:41.104Z,2.16
2023-05-10T14:35:41.091Z,1.84
2023-05-10T14:36:41.137Z,1.93
2023-05-10T14:37:41.108Z,2.36
2023-05-10T14:38:41.113Z,1.86
2023-05-10T14:39:41.121Z,1.81
2023-05-10T14:40:41.101Z,2.14
2023-05-10T14:42:41.144Z,2.01